sensor_id;sensor_type;location;lat;lon;timestamp;P1;durP1;ratioP1;P2;durP2;ratioP2
28003;SDS011;15330;51.234;6.754;2024-03-07T00:01:12;85.70;;;40.05;;
28003;SDS011;15330;51.234;6.754;2024-03-07T00:03:37;84.78;;;40.83;;
28003;SDS011;15330;51.234;6.754;2024-03-07T00:06:04;89.00;;;42.35;;
28003;SDS011;15330;51.234;6.754;2024-03-07T00:08:29;86.13;;;42.35;;
28003;SDS011;15330;51.234;6.754;2024-03-07T00:10:55;87.57;;;41.47;;
28003;SDS011;15330;51.234;6.754;2024-03-07T00:13:21;84.20;;;41.35;;
28003;SDS011;15330;51.234;6.754;2024-03-07T00:15:46;82.60;;;41.42;;
28003;SDS011;15330;51.234;6.754;2024-03-07T00:18:12;78.97;;;40.08;;
28003;SDS011;15330;51.234;6.754;2024-03-07T00:20:41;86.47;;;42.25;;
28003;SDS011;15330;51.234;6.754;2024-03-07T00:23:07;82.82;;;41.22;;
28003;SDS011;15330;51.234;6.754;2024-03-07T00:25:34;87.32;;;41.58;;
28003;SDS011;15330;51.234;6.754;2024-03-07T00:27:59;86.00;;;41.13;;
28003;SDS011;15330;51.234;6.754;2024-03-07T00:30:28;86.00;;;40.58;;
28003;SDS011;15330;51.234;6.754;2024-03-07T00:32:54;93.10;;;45.60;;
28003;SDS011;15330;51.234;6.754;2024-03-07T00:35:21;84.05;;;40.85;;
28003;SDS011;15330;51.234;6.754;2024-03-07T00:37:47;83.72;;;42.70;;
28003;SDS011;15330;51.234;6.754;2024-03-07T00:40:12;82.22;;;42.70;;
28003;SDS011;15330;51.234;6.754;2024-03-07T00:42:38;100.78;;;41.97;;
28003;SDS011;15330;51.234;6.754;2024-03-07T00:45:04;79.75;;;39.88;;
28003;SDS011;15330;51.234;6.754;2024-03-07T00:47:30;86.45;;;42.15;;
28003;SDS011;15330;51.234;6.754;2024-03-07T00:49:57;83.47;;;41.33;;
28003;SDS011;15330;51.234;6.754;2024-03-07T00:52:22;90.93;;;42.90;;
28003;SDS011;15330;51.234;6.754;2024-03-07T00:54:48;85.22;;;42.97;;
28003;SDS011;15330;51.234;6.754;2024-03-07T00:57:14;89.55;;;42.75;;
28003;SDS011;15330;51.234;6.754;2024-03-07T00:59:39;90.13;;;42.15;;
28003;SDS011;15330;51.234;6.754;2024-03-07T01:02:05;90.68;;;41.35;;
28003;SDS011;15330;51.234;6.754;2024-03-07T01:04:30;87.55;;;41.55;;
28003;SDS011;15330;51.234;6.754;2024-03-07T01:06:58;88.28;;;42.90;;
28003;SDS011;15330;51.234;6.754;2024-03-07T01:09:24;86.82;;;42.50;;
28003;SDS011;15330;51.234;6.754;2024-03-07T01:11:49;96.43;;;43.85;;
28003;SDS011;15330;51.234;6.754;2024-03-07T01:14:15;82.90;;;40.30;;
28003;SDS011;15330;51.234;6.754;2024-03-07T01:16:41;84.80;;;40.60;;
28003;SDS011;15330;51.234;6.754;2024-03-07T01:19:07;84.00;;;40.83;;
28003;SDS011;15330;51.234;6.754;2024-03-07T01:21:33;88.93;;;41.60;;
28003;SDS011;15330;51.234;6.754;2024-03-07T01:23:59;87.50;;;42.05;;
28003;SDS011;15330;51.234;6.754;2024-03-07T01:26:26;83.60;;;40.55;;
28003;SDS011;15330;51.234;6.754;2024-03-07T01:28:52;85.47;;;43.33;;
28003;SDS011;15330;51.234;6.754;2024-03-07T01:31:19;87.18;;;41.08;;
28003;SDS011;15330;51.234;6.754;2024-03-07T01:33:45;89.72;;;41.88;;
28003;SDS011;15330;51.234;6.754;2024-03-07T01:36:11;85.47;;;41.92;;
28003;SDS011;15330;51.234;6.754;2024-03-07T01:38:36;82.75;;;40.45;;
28003;SDS011;15330;51.234;6.754;2024-03-07T01:41:01;83.45;;;41.10;;
28003;SDS011;15330;51.234;6.754;2024-03-07T01:43:27;88.50;;;42.08;;
28003;SDS011;15330;51.234;6.754;2024-03-07T01:45:56;89.90;;;42.47;;
28003;SDS011;15330;51.234;6.754;2024-03-07T01:48:26;89.05;;;39.55;;
28003;SDS011;15330;51.234;6.754;2024-03-07T01:50:54;94.72;;;42.70;;
28003;SDS011;15330;51.234;6.754;2024-03-07T01:53:20;87.93;;;42.72;;
28003;SDS011;15330;51.234;6.754;2024-03-07T01:55:48;76.80;;;39.20;;
28003;SDS011;15330;51.234;6.754;2024-03-07T01:58:14;80.43;;;39.72;;
28003;SDS011;15330;51.234;6.754;2024-03-07T02:00:44;84.70;;;39.67;;
28003;SDS011;15330;51.234;6.754;2024-03-07T02:03:10;83.05;;;39.88;;
28003;SDS011;15330;51.234;6.754;2024-03-07T02:05:35;84.80;;;39.35;;
28003;SDS011;15330;51.234;6.754;2024-03-07T02:08:01;83.85;;;40.28;;
28003;SDS011;15330;51.234;6.754;2024-03-07T02:10:29;79.22;;;38.63;;
28003;SDS011;15330;51.234;6.754;2024-03-07T02:12:55;90.15;;;40.40;;
28003;SDS011;15330;51.234;6.754;2024-03-07T02:15:20;80.20;;;39.75;;
28003;SDS011;15330;51.234;6.754;2024-03-07T02:17:46;83.68;;;41.00;;
28003;SDS011;15330;51.234;6.754;2024-03-07T02:20:11;85.05;;;39.28;;
28003;SDS011;15330;51.234;6.754;2024-03-07T02:22:38;87.93;;;39.60;;
28003;SDS011;15330;51.234;6.754;2024-03-07T02:25:04;85.88;;;40.60;;
28003;SDS011;15330;51.234;6.754;2024-03-07T02:27:30;85.10;;;39.92;;
28003;SDS011;15330;51.234;6.754;2024-03-07T02:29:55;85.78;;;40.25;;
28003;SDS011;15330;51.234;6.754;2024-03-07T02:32:21;78.28;;;39.20;;
28003;SDS011;15330;51.234;6.754;2024-03-07T02:34:48;90.40;;;39.75;;
28003;SDS011;15330;51.234;6.754;2024-03-07T02:37:13;88.13;;;41.28;;
28003;SDS011;15330;51.234;6.754;2024-03-07T02:39:39;84.55;;;40.97;;
28003;SDS011;15330;51.234;6.754;2024-03-07T02:42:05;84.13;;;40.25;;
28003;SDS011;15330;51.234;6.754;2024-03-07T02:44:31;85.78;;;39.58;;
28003;SDS011;15330;51.234;6.754;2024-03-07T02:46:57;88.65;;;40.00;;
28003;SDS011;15330;51.234;6.754;2024-03-07T02:49:22;87.55;;;41.47;;
28003;SDS011;15330;51.234;6.754;2024-03-07T02:51:48;86.55;;;41.63;;
28003;SDS011;15330;51.234;6.754;2024-03-07T02:54:14;85.22;;;40.97;;
28003;SDS011;15330;51.234;6.754;2024-03-07T02:56:39;92.15;;;41.90;;
28003;SDS011;15330;51.234;6.754;2024-03-07T02:59:04;85.13;;;40.42;;
28003;SDS011;15330;51.234;6.754;2024-03-07T03:01:31;87.53;;;42.25;;
28003;SDS011;15330;51.234;6.754;2024-03-07T03:03:57;81.35;;;41.47;;
28003;SDS011;15330;51.234;6.754;2024-03-07T03:06:22;85.93;;;38.83;;
28003;SDS011;15330;51.234;6.754;2024-03-07T03:08:48;80.35;;;38.17;;
28003;SDS011;15330;51.234;6.754;2024-03-07T03:11:14;81.50;;;39.03;;
28003;SDS011;15330;51.234;6.754;2024-03-07T03:13:39;74.28;;;37.05;;
28003;SDS011;15330;51.234;6.754;2024-03-07T03:16:06;72.93;;;35.67;;
28003;SDS011;15330;51.234;6.754;2024-03-07T03:18:34;76.55;;;37.35;;
28003;SDS011;15330;51.234;6.754;2024-03-07T03:21:01;76.88;;;37.40;;
28003;SDS011;15330;51.234;6.754;2024-03-07T03:23:27;75.32;;;35.00;;
28003;SDS011;15330;51.234;6.754;2024-03-07T03:25:53;70.75;;;36.13;;
28003;SDS011;15330;51.234;6.754;2024-03-07T03:28:20;69.20;;;37.15;;
28003;SDS011;15330;51.234;6.754;2024-03-07T03:30:46;65.68;;;33.70;;
28003;SDS011;15330;51.234;6.754;2024-03-07T03:33:12;67.55;;;35.38;;
28003;SDS011;15330;51.234;6.754;2024-03-07T03:35:37;63.95;;;33.22;;
28003;SDS011;15330;51.234;6.754;2024-03-07T03:38:03;65.93;;;33.53;;
28003;SDS011;15330;51.234;6.754;2024-03-07T03:40:29;66.88;;;34.58;;
28003;SDS011;15330;51.234;6.754;2024-03-07T03:42:55;64.97;;;33.42;;
28003;SDS011;15330;51.234;6.754;2024-03-07T03:45:21;65.95;;;34.25;;
28003;SDS011;15330;51.234;6.754;2024-03-07T03:47:46;65.57;;;34.25;;
28003;SDS011;15330;51.234;6.754;2024-03-07T03:50:13;67.43;;;34.88;;
28003;SDS011;15330;51.234;6.754;2024-03-07T03:52:42;72.55;;;36.78;;
28003;SDS011;15330;51.234;6.754;2024-03-07T03:55:07;70.90;;;36.25;;
28003;SDS011;15330;51.234;6.754;2024-03-07T03:57:40;71.68;;;36.88;;
28003;SDS011;15330;51.234;6.754;2024-03-07T04:00:07;72.32;;;36.55;;
28003;SDS011;15330;51.234;6.754;2024-03-07T04:02:43;76.13;;;37.67;;
28003;SDS011;15330;51.234;6.754;2024-03-07T04:05:12;69.90;;;35.78;;
28003;SDS011;15330;51.234;6.754;2024-03-07T04:07:39;76.25;;;36.72;;
28003;SDS011;15330;51.234;6.754;2024-03-07T04:10:06;77.90;;;38.33;;
28003;SDS011;15330;51.234;6.754;2024-03-07T04:12:35;78.32;;;37.97;;
28003;SDS011;15330;51.234;6.754;2024-03-07T04:15:02;75.43;;;36.45;;
28003;SDS011;15330;51.234;6.754;2024-03-07T04:17:32;74.03;;;36.03;;
28003;SDS011;15330;51.234;6.754;2024-03-07T04:19:59;71.80;;;36.20;;
28003;SDS011;15330;51.234;6.754;2024-03-07T04:22:25;69.45;;;36.90;;
28003;SDS011;15330;51.234;6.754;2024-03-07T04:24:51;77.18;;;38.90;;
28003;SDS011;15330;51.234;6.754;2024-03-07T04:27:19;78.30;;;38.13;;
28003;SDS011;15330;51.234;6.754;2024-03-07T04:29:46;68.57;;;37.33;;
28003;SDS011;15330;51.234;6.754;2024-03-07T04:32:13;77.50;;;37.08;;
28003;SDS011;15330;51.234;6.754;2024-03-07T04:34:38;79.57;;;38.65;;
28003;SDS011;15330;51.234;6.754;2024-03-07T04:37:04;79.65;;;38.55;;
28003;SDS011;15330;51.234;6.754;2024-03-07T04:39:30;78.55;;;39.28;;
28003;SDS011;15330;51.234;6.754;2024-03-07T04:42:04;76.50;;;38.38;;
28003;SDS011;15330;51.234;6.754;2024-03-07T04:44:36;77.13;;;38.40;;
28003;SDS011;15330;51.234;6.754;2024-03-07T04:47:02;79.78;;;38.03;;
28003;SDS011;15330;51.234;6.754;2024-03-07T04:49:29;78.13;;;37.33;;
28003;SDS011;15330;51.234;6.754;2024-03-07T04:51:56;75.57;;;38.38;;
28003;SDS011;15330;51.234;6.754;2024-03-07T04:54:25;71.80;;;37.25;;
28003;SDS011;15330;51.234;6.754;2024-03-07T04:56:53;79.55;;;39.70;;
28003;SDS011;15330;51.234;6.754;2024-03-07T04:59:19;77.80;;;38.75;;
28003;SDS011;15330;51.234;6.754;2024-03-07T05:01:45;79.93;;;39.38;;
28003;SDS011;15330;51.234;6.754;2024-03-07T05:04:12;77.82;;;38.78;;
28003;SDS011;15330;51.234;6.754;2024-03-07T05:06:38;85.35;;;39.28;;
28003;SDS011;15330;51.234;6.754;2024-03-07T05:09:05;75.22;;;36.75;;
28003;SDS011;15330;51.234;6.754;2024-03-07T05:11:32;75.45;;;36.88;;
28003;SDS011;15330;51.234;6.754;2024-03-07T05:13:59;72.43;;;35.85;;
28003;SDS011;15330;51.234;6.754;2024-03-07T05:16:28;73.10;;;36.70;;
28003;SDS011;15330;51.234;6.754;2024-03-07T05:18:55;78.53;;;36.53;;
28003;SDS011;15330;51.234;6.754;2024-03-07T05:21:24;70.43;;;38.05;;
28003;SDS011;15330;51.234;6.754;2024-03-07T05:24:02;71.18;;;36.83;;
28003;SDS011;15330;51.234;6.754;2024-03-07T05:26:29;77.13;;;37.80;;
28003;SDS011;15330;51.234;6.754;2024-03-07T05:29:00;75.10;;;39.08;;
28003;SDS011;15330;51.234;6.754;2024-03-07T05:31:30;86.25;;;40.10;;
28003;SDS011;15330;51.234;6.754;2024-03-07T05:33:59;80.50;;;40.33;;
28003;SDS011;15330;51.234;6.754;2024-03-07T05:36:34;82.75;;;41.03;;
28003;SDS011;15330;51.234;6.754;2024-03-07T05:39:00;78.95;;;39.15;;
28003;SDS011;15330;51.234;6.754;2024-03-07T05:41:27;81.35;;;39.75;;
28003;SDS011;15330;51.234;6.754;2024-03-07T05:43:54;78.32;;;39.30;;
28003;SDS011;15330;51.234;6.754;2024-03-07T05:46:22;79.93;;;38.58;;
28003;SDS011;15330;51.234;6.754;2024-03-07T05:48:48;78.88;;;39.47;;
28003;SDS011;15330;51.234;6.754;2024-03-07T05:51:17;77.55;;;38.90;;
28003;SDS011;15330;51.234;6.754;2024-03-07T05:53:43;77.20;;;39.15;;
28003;SDS011;15330;51.234;6.754;2024-03-07T05:56:08;77.65;;;39.38;;
28003;SDS011;15330;51.234;6.754;2024-03-07T05:58:34;80.07;;;40.42;;
28003;SDS011;15330;51.234;6.754;2024-03-07T06:01:00;82.40;;;39.50;;
28003;SDS011;15330;51.234;6.754;2024-03-07T06:03:25;81.45;;;39.63;;
28003;SDS011;15330;51.234;6.754;2024-03-07T06:05:50;81.55;;;39.53;;
28003;SDS011;15330;51.234;6.754;2024-03-07T06:08:19;79.55;;;39.28;;
28003;SDS011;15330;51.234;6.754;2024-03-07T06:10:46;81.60;;;39.85;;
28003;SDS011;15330;51.234;6.754;2024-03-07T06:13:13;76.97;;;38.08;;
28003;SDS011;15330;51.234;6.754;2024-03-07T06:15:42;83.03;;;39.95;;
28003;SDS011;15330;51.234;6.754;2024-03-07T06:18:08;80.57;;;39.22;;
28003;SDS011;15330;51.234;6.754;2024-03-07T06:20:35;84.82;;;41.03;;
28003;SDS011;15330;51.234;6.754;2024-03-07T06:23:02;80.68;;;39.80;;
28003;SDS011;15330;51.234;6.754;2024-03-07T06:25:30;81.95;;;41.63;;
28003;SDS011;15330;51.234;6.754;2024-03-07T06:28:02;84.53;;;42.67;;
28003;SDS011;15330;51.234;6.754;2024-03-07T06:30:37;82.03;;;40.50;;
28003;SDS011;15330;51.234;6.754;2024-03-07T06:33:04;78.10;;;40.22;;
28003;SDS011;15330;51.234;6.754;2024-03-07T06:35:31;79.78;;;39.13;;
28003;SDS011;15330;51.234;6.754;2024-03-07T06:37:56;78.25;;;37.78;;
28003;SDS011;15330;51.234;6.754;2024-03-07T06:40:22;77.40;;;37.28;;
28003;SDS011;15330;51.234;6.754;2024-03-07T06:42:48;74.97;;;36.42;;
28003;SDS011;15330;51.234;6.754;2024-03-07T06:45:14;69.97;;;37.70;;
28003;SDS011;15330;51.234;6.754;2024-03-07T06:47:40;73.35;;;38.38;;
28003;SDS011;15330;51.234;6.754;2024-03-07T06:50:06;76.05;;;37.50;;
28003;SDS011;15330;51.234;6.754;2024-03-07T06:52:34;67.82;;;36.60;;
28003;SDS011;15330;51.234;6.754;2024-03-07T06:55:00;69.63;;;37.95;;
28003;SDS011;15330;51.234;6.754;2024-03-07T06:57:32;61.70;;;35.33;;
28003;SDS011;15330;51.234;6.754;2024-03-07T06:59:59;64.75;;;36.42;;
28003;SDS011;15330;51.234;6.754;2024-03-07T07:02:25;63.97;;;35.67;;
28003;SDS011;15330;51.234;6.754;2024-03-07T07:04:53;63.17;;;35.42;;
28003;SDS011;15330;51.234;6.754;2024-03-07T07:07:18;62.15;;;35.13;;
28003;SDS011;15330;51.234;6.754;2024-03-07T07:09:44;62.28;;;35.95;;
28003;SDS011;15330;51.234;6.754;2024-03-07T07:12:09;63.58;;;37.13;;
28003;SDS011;15330;51.234;6.754;2024-03-07T07:14:35;62.92;;;36.58;;
28003;SDS011;15330;51.234;6.754;2024-03-07T07:17:01;59.13;;;36.33;;
28003;SDS011;15330;51.234;6.754;2024-03-07T07:19:26;63.65;;;37.17;;
28003;SDS011;15330;51.234;6.754;2024-03-07T07:21:52;55.05;;;34.30;;
28003;SDS011;15330;51.234;6.754;2024-03-07T07:24:19;55.83;;;35.53;;
28003;SDS011;15330;51.234;6.754;2024-03-07T07:26:47;57.58;;;34.38;;
28003;SDS011;15330;51.234;6.754;2024-03-07T07:29:12;58.50;;;35.42;;
28003;SDS011;15330;51.234;6.754;2024-03-07T07:31:38;49.88;;;32.85;;
28003;SDS011;15330;51.234;6.754;2024-03-07T07:34:03;54.75;;;34.25;;
28003;SDS011;15330;51.234;6.754;2024-03-07T07:36:29;51.92;;;33.90;;
28003;SDS011;15330;51.234;6.754;2024-03-07T07:38:55;58.15;;;34.55;;
28003;SDS011;15330;51.234;6.754;2024-03-07T07:41:20;50.22;;;33.25;;
28003;SDS011;15330;51.234;6.754;2024-03-07T07:43:46;56.53;;;33.17;;
28003;SDS011;15330;51.234;6.754;2024-03-07T07:46:13;53.25;;;32.58;;
28003;SDS011;15330;51.234;6.754;2024-03-07T07:48:41;46.60;;;32.45;;
28003;SDS011;15330;51.234;6.754;2024-03-07T07:51:06;47.33;;;32.78;;
28003;SDS011;15330;51.234;6.754;2024-03-07T07:53:32;41.78;;;30.38;;
28003;SDS011;15330;51.234;6.754;2024-03-07T07:55:58;41.40;;;30.02;;
28003;SDS011;15330;51.234;6.754;2024-03-07T07:58:23;41.45;;;27.63;;
28003;SDS011;15330;51.234;6.754;2024-03-07T08:00:48;39.45;;;28.05;;
28003;SDS011;15330;51.234;6.754;2024-03-07T08:03:14;36.85;;;26.42;;
28003;SDS011;15330;51.234;6.754;2024-03-07T08:05:42;39.28;;;26.98;;
28003;SDS011;15330;51.234;6.754;2024-03-07T08:08:10;37.55;;;25.60;;
28003;SDS011;15330;51.234;6.754;2024-03-07T08:10:38;38.97;;;26.35;;
28003;SDS011;15330;51.234;6.754;2024-03-07T08:13:06;33.35;;;25.48;;
28003;SDS011;15330;51.234;6.754;2024-03-07T08:15:33;38.15;;;25.65;;
28003;SDS011;15330;51.234;6.754;2024-03-07T08:17:59;37.13;;;26.50;;
28003;SDS011;15330;51.234;6.754;2024-03-07T08:20:25;40.08;;;26.45;;
28003;SDS011;15330;51.234;6.754;2024-03-07T08:22:52;39.42;;;26.08;;
28003;SDS011;15330;51.234;6.754;2024-03-07T08:25:23;38.67;;;26.05;;
28003;SDS011;15330;51.234;6.754;2024-03-07T08:27:51;41.70;;;27.55;;
28003;SDS011;15330;51.234;6.754;2024-03-07T08:30:18;44.67;;;27.70;;
28003;SDS011;15330;51.234;6.754;2024-03-07T08:32:45;38.47;;;28.58;;
28003;SDS011;15330;51.234;6.754;2024-03-07T08:35:14;39.88;;;28.45;;
28003;SDS011;15330;51.234;6.754;2024-03-07T08:37:42;37.95;;;26.70;;
28003;SDS011;15330;51.234;6.754;2024-03-07T08:40:14;36.15;;;28.02;;
28003;SDS011;15330;51.234;6.754;2024-03-07T08:42:52;35.35;;;26.33;;
28003;SDS011;15330;51.234;6.754;2024-03-07T08:45:21;41.00;;;27.33;;
28003;SDS011;15330;51.234;6.754;2024-03-07T08:47:47;33.85;;;26.58;;
28003;SDS011;15330;51.234;6.754;2024-03-07T08:50:16;32.13;;;25.00;;
28003;SDS011;15330;51.234;6.754;2024-03-07T08:52:45;33.70;;;27.33;;
28003;SDS011;15330;51.234;6.754;2024-03-07T08:55:13;34.33;;;26.95;;
28003;SDS011;15330;51.234;6.754;2024-03-07T08:57:40;31.08;;;25.27;;
28003;SDS011;15330;51.234;6.754;2024-03-07T09:00:07;32.95;;;25.00;;
28003;SDS011;15330;51.234;6.754;2024-03-07T09:02:40;27.38;;;23.90;;
28003;SDS011;15330;51.234;6.754;2024-03-07T09:05:05;34.70;;;25.45;;
28003;SDS011;15330;51.234;6.754;2024-03-07T09:07:32;28.42;;;23.27;;
28003;SDS011;15330;51.234;6.754;2024-03-07T09:09:58;30.88;;;23.48;;
28003;SDS011;15330;51.234;6.754;2024-03-07T09:12:23;27.63;;;23.00;;
28003;SDS011;15330;51.234;6.754;2024-03-07T09:14:52;31.13;;;24.75;;
28003;SDS011;15330;51.234;6.754;2024-03-07T09:17:18;27.50;;;22.63;;
28003;SDS011;15330;51.234;6.754;2024-03-07T09:19:43;26.67;;;23.77;;
28003;SDS011;15330;51.234;6.754;2024-03-07T09:22:10;27.35;;;21.95;;
28003;SDS011;15330;51.234;6.754;2024-03-07T09:24:35;25.35;;;21.75;;
28003;SDS011;15330;51.234;6.754;2024-03-07T09:27:03;25.88;;;22.42;;
28003;SDS011;15330;51.234;6.754;2024-03-07T09:29:28;23.75;;;21.10;;
28003;SDS011;15330;51.234;6.754;2024-03-07T09:31:54;23.38;;;20.88;;
28003;SDS011;15330;51.234;6.754;2024-03-07T09:34:20;24.63;;;22.02;;
28003;SDS011;15330;51.234;6.754;2024-03-07T09:36:46;23.92;;;20.90;;
28003;SDS011;15330;51.234;6.754;2024-03-07T09:39:15;25.40;;;21.95;;
28003;SDS011;15330;51.234;6.754;2024-03-07T09:41:41;25.27;;;20.55;;
28003;SDS011;15330;51.234;6.754;2024-03-07T09:44:09;23.08;;;20.60;;
28003;SDS011;15330;51.234;6.754;2024-03-07T09:46:39;23.75;;;19.88;;
28003;SDS011;15330;51.234;6.754;2024-03-07T09:49:05;25.17;;;21.85;;
28003;SDS011;15330;51.234;6.754;2024-03-07T09:51:33;26.33;;;21.38;;
28003;SDS011;15330;51.234;6.754;2024-03-07T09:54:00;29.05;;;23.27;;
28003;SDS011;15330;51.234;6.754;2024-03-07T09:56:27;28.63;;;22.10;;
28003;SDS011;15330;51.234;6.754;2024-03-07T09:58:57;27.42;;;21.48;;
28003;SDS011;15330;51.234;6.754;2024-03-07T10:01:26;29.15;;;20.05;;
28003;SDS011;15330;51.234;6.754;2024-03-07T10:03:57;30.05;;;20.83;;
28003;SDS011;15330;51.234;6.754;2024-03-07T10:06:23;29.75;;;21.85;;
28003;SDS011;15330;51.234;6.754;2024-03-07T10:08:49;29.95;;;20.48;;
28003;SDS011;15330;51.234;6.754;2024-03-07T10:11:15;33.33;;;22.30;;
28003;SDS011;15330;51.234;6.754;2024-03-07T10:13:40;32.35;;;21.60;;
28003;SDS011;15330;51.234;6.754;2024-03-07T10:16:06;34.60;;;21.85;;
28003;SDS011;15330;51.234;6.754;2024-03-07T10:18:33;34.38;;;22.85;;
28003;SDS011;15330;51.234;6.754;2024-03-07T10:21:06;33.80;;;20.75;;
28003;SDS011;15330;51.234;6.754;2024-03-07T10:23:32;34.72;;;21.45;;
28003;SDS011;15330;51.234;6.754;2024-03-07T10:25:59;33.65;;;21.27;;
28003;SDS011;15330;51.234;6.754;2024-03-07T10:28:26;35.03;;;21.35;;
28003;SDS011;15330;51.234;6.754;2024-03-07T10:30:52;33.50;;;20.50;;
28003;SDS011;15330;51.234;6.754;2024-03-07T10:33:17;33.33;;;19.90;;
28003;SDS011;15330;51.234;6.754;2024-03-07T10:35:46;35.47;;;20.65;;
28003;SDS011;15330;51.234;6.754;2024-03-07T10:38:14;37.17;;;20.25;;
28003;SDS011;15330;51.234;6.754;2024-03-07T10:40:40;32.67;;;20.67;;
28003;SDS011;15330;51.234;6.754;2024-03-07T10:43:09;35.67;;;19.88;;
28003;SDS011;15330;51.234;6.754;2024-03-07T10:45:37;32.40;;;20.30;;
28003;SDS011;15330;51.234;6.754;2024-03-07T10:48:11;38.78;;;21.90;;
28003;SDS011;15330;51.234;6.754;2024-03-07T10:53:31;32.15;;;21.83;;
28003;SDS011;15330;51.234;6.754;2024-03-07T11:01:32;26.08;;;22.38;;
28003;SDS011;15330;51.234;6.754;2024-03-07T11:04:00;26.05;;;21.13;;
28003;SDS011;15330;51.234;6.754;2024-03-07T11:06:30;25.80;;;22.02;;
28003;SDS011;15330;51.234;6.754;2024-03-07T11:08:59;26.42;;;21.27;;
28003;SDS011;15330;51.234;6.754;2024-03-07T11:11:25;24.83;;;21.58;;
28003;SDS011;15330;51.234;6.754;2024-03-07T11:13:53;27.77;;;21.60;;
28003;SDS011;15330;51.234;6.754;2024-03-07T11:16:20;26.88;;;20.98;;
28003;SDS011;15330;51.234;6.754;2024-03-07T11:21:52;25.20;;;20.42;;
28003;SDS011;15330;51.234;6.754;2024-03-07T11:24:24;23.70;;;20.70;;
28003;SDS011;15330;51.234;6.754;2024-03-07T11:26:57;25.58;;;20.35;;
28003;SDS011;15330;51.234;6.754;2024-03-07T11:34:46;27.23;;;20.30;;
28003;SDS011;15330;51.234;6.754;2024-03-07T11:40:11;25.58;;;19.45;;
28003;SDS011;15330;51.234;6.754;2024-03-07T11:42:52;26.70;;;20.35;;
28003;SDS011;15330;51.234;6.754;2024-03-07T11:45:19;25.83;;;18.85;;
28003;SDS011;15330;51.234;6.754;2024-03-07T11:50:48;29.67;;;20.15;;
28003;SDS011;15330;51.234;6.754;2024-03-07T11:53:14;28.15;;;18.73;;
28003;SDS011;15330;51.234;6.754;2024-03-07T11:55:39;28.15;;;19.15;;
28003;SDS011;15330;51.234;6.754;2024-03-07T11:58:13;29.42;;;19.20;;
28003;SDS011;15330;51.234;6.754;2024-03-07T12:00:48;26.88;;;18.50;;
28003;SDS011;15330;51.234;6.754;2024-03-07T12:03:16;29.02;;;17.73;;
28003;SDS011;15330;51.234;6.754;2024-03-07T12:05:46;24.50;;;17.45;;
28003;SDS011;15330;51.234;6.754;2024-03-07T12:08:16;29.50;;;19.05;;
28003;SDS011;15330;51.234;6.754;2024-03-07T12:10:42;28.10;;;18.98;;
28003;SDS011;15330;51.234;6.754;2024-03-07T12:13:12;26.48;;;17.98;;
28003;SDS011;15330;51.234;6.754;2024-03-07T12:15:40;25.05;;;17.02;;
28003;SDS011;15330;51.234;6.754;2024-03-07T12:18:07;33.15;;;17.98;;
28003;SDS011;15330;51.234;6.754;2024-03-07T12:20:37;22.13;;;16.13;;
28003;SDS011;15330;51.234;6.754;2024-03-07T12:23:04;26.88;;;17.25;;
28003;SDS011;15330;51.234;6.754;2024-03-07T12:25:36;27.13;;;16.70;;
28003;SDS011;15330;51.234;6.754;2024-03-07T12:28:03;24.10;;;15.63;;
28003;SDS011;15330;51.234;6.754;2024-03-07T12:30:51;24.67;;;15.90;;
28003;SDS011;15330;51.234;6.754;2024-03-07T12:33:19;23.90;;;17.13;;
28003;SDS011;15330;51.234;6.754;2024-03-07T12:35:48;25.65;;;16.20;;
28003;SDS011;15330;51.234;6.754;2024-03-07T12:38:16;23.02;;;16.60;;
28003;SDS011;15330;51.234;6.754;2024-03-07T12:40:43;21.42;;;15.18;;
28003;SDS011;15330;51.234;6.754;2024-03-07T12:43:12;22.48;;;16.10;;
28003;SDS011;15330;51.234;6.754;2024-03-07T12:45:51;26.85;;;17.25;;
28003;SDS011;15330;51.234;6.754;2024-03-07T12:48:17;31.98;;;20.48;;
28003;SDS011;15330;51.234;6.754;2024-03-07T12:50:47;40.42;;;22.50;;
28003;SDS011;15330;51.234;6.754;2024-03-07T12:53:22;36.88;;;21.80;;
28003;SDS011;15330;51.234;6.754;2024-03-07T12:55:50;34.45;;;21.10;;
28003;SDS011;15330;51.234;6.754;2024-03-07T12:58:17;34.00;;;19.77;;
28003;SDS011;15330;51.234;6.754;2024-03-07T13:00:44;30.92;;;20.10;;
28003;SDS011;15330;51.234;6.754;2024-03-07T13:03:10;32.10;;;20.25;;
28003;SDS011;15330;51.234;6.754;2024-03-07T13:05:38;31.35;;;18.50;;
28003;SDS011;15330;51.234;6.754;2024-03-07T13:08:06;32.97;;;17.83;;
28003;SDS011;15330;51.234;6.754;2024-03-07T13:10:36;33.28;;;18.27;;
28003;SDS011;15330;51.234;6.754;2024-03-07T13:13:03;31.55;;;18.25;;
28003;SDS011;15330;51.234;6.754;2024-03-07T13:15:29;31.95;;;18.73;;
28003;SDS011;15330;51.234;6.754;2024-03-07T13:17:55;33.85;;;20.58;;
28003;SDS011;15330;51.234;6.754;2024-03-07T13:20:24;34.72;;;20.85;;
28003;SDS011;15330;51.234;6.754;2024-03-07T13:22:51;31.40;;;20.05;;
28003;SDS011;15330;51.234;6.754;2024-03-07T13:25:24;34.53;;;20.50;;
28003;SDS011;15330;51.234;6.754;2024-03-07T13:30:40;31.48;;;21.20;;
28003;SDS011;15330;51.234;6.754;2024-03-07T13:33:06;33.63;;;19.13;;
28003;SDS011;15330;51.234;6.754;2024-03-07T13:35:32;34.35;;;20.55;;
28003;SDS011;15330;51.234;6.754;2024-03-07T13:37:58;36.22;;;19.17;;
28003;SDS011;15330;51.234;6.754;2024-03-07T13:40:24;32.35;;;21.08;;
28003;SDS011;15330;51.234;6.754;2024-03-07T13:42:55;35.22;;;22.13;;
28003;SDS011;15330;51.234;6.754;2024-03-07T13:45:22;34.75;;;22.48;;
28003;SDS011;15330;51.234;6.754;2024-03-07T13:47:51;37.28;;;22.90;;
28003;SDS011;15330;51.234;6.754;2024-03-07T13:50:19;37.15;;;22.02;;
28003;SDS011;15330;51.234;6.754;2024-03-07T13:52:48;35.90;;;23.00;;
28003;SDS011;15330;51.234;6.754;2024-03-07T14:00:54;34.95;;;20.77;;
28003;SDS011;15330;51.234;6.754;2024-03-07T14:03:42;30.08;;;19.13;;
28003;SDS011;15330;51.234;6.754;2024-03-07T14:09:21;35.63;;;20.23;;
28003;SDS011;15330;51.234;6.754;2024-03-07T14:32:03;33.72;;;18.23;;
28003;SDS011;15330;51.234;6.754;2024-03-07T14:36:57;26.73;;;17.67;;
28003;SDS011;15330;51.234;6.754;2024-03-07T14:39:29;26.58;;;17.38;;
28003;SDS011;15330;51.234;6.754;2024-03-07T14:42:03;26.15;;;17.40;;
28003;SDS011;15330;51.234;6.754;2024-03-07T14:44:35;23.23;;;17.20;;
28003;SDS011;15330;51.234;6.754;2024-03-07T14:47:03;25.88;;;14.88;;
28003;SDS011;15330;51.234;6.754;2024-03-07T14:49:32;21.67;;;14.70;;
28003;SDS011;15330;51.234;6.754;2024-03-07T14:51:59;24.40;;;14.10;;
28003;SDS011;15330;51.234;6.754;2024-03-07T14:54:24;20.35;;;13.68;;
28003;SDS011;15330;51.234;6.754;2024-03-07T14:56:51;22.25;;;14.85;;
28003;SDS011;15330;51.234;6.754;2024-03-07T14:59:17;18.85;;;12.75;;
28003;SDS011;15330;51.234;6.754;2024-03-07T15:01:43;15.52;;;11.52;;
28003;SDS011;15330;51.234;6.754;2024-03-07T15:04:09;14.80;;;10.27;;
28003;SDS011;15330;51.234;6.754;2024-03-07T15:06:36;15.77;;;11.55;;
28003;SDS011;15330;51.234;6.754;2024-03-07T15:09:03;14.88;;;11.13;;
28003;SDS011;15330;51.234;6.754;2024-03-07T15:11:34;16.48;;;10.57;;
28003;SDS011;15330;51.234;6.754;2024-03-07T15:14:00;18.30;;;11.45;;
28003;SDS011;15330;51.234;6.754;2024-03-07T15:16:26;15.82;;;11.45;;
28003;SDS011;15330;51.234;6.754;2024-03-07T15:18:55;16.35;;;10.35;;